createdAt,value
2022-09-28T00:01:21.710Z,3.65
2022-09-28T00:03:52.305Z,3.28
2022-09-28T00:06:24.481Z,5.75
2022-09-28T00:08:52.566Z,3.78
2022-09-28T00:11:21.558Z,4.88
2022-09-28T00:13:56.524Z,4.20
2022-09-28T00:16:27.114Z,3.45
2022-09-28T00:18:55.129Z,3.15
2022-09-28T00:21:27.230Z,4.30
2022-09-28T00:24:15.848Z,3.60
2022-09-28T00:26:52.837Z,5.93
2022-09-28T00:32:02.645Z,4.80
2022-09-28T00:34:33.005Z,3.10
2022-09-28T00:37:02.216Z,3.05
2022-09-28T00:39:31.905Z,5.25
2022-09-28T00:41:59.924Z,3.95
2022-09-28T00:44:36.176Z,5.13
2022-09-28T00:47:15.217Z,3.38
2022-09-28T00:50:01.273Z,3.38
2022-09-28T00:53:01.405Z,4.47
2022-09-28T00:55:46.537Z,4.82
2022-09-28T00:58:20.176Z,4.35
2022-09-28T01:00:49.162Z,3.80
2022-09-28T01:03:17.499Z,4.20
2022-09-28T01:05:47.227Z,3.72
2022-09-28T01:08:17.683Z,4.65
2022-09-28T01:10:45.443Z,4.88
2022-09-28T01:13:16.278Z,4.15
2022-09-28T01:15:54.901Z,4.40
2022-09-28T01:18:41.252Z,4.00
2022-09-28T01:21:25.737Z,2.53
2022-09-28T01:24:16.673Z,5.35
2022-09-28T01:26:55.225Z,3.15
2022-09-28T01:29:35.930Z,5.22
2022-09-28T01:32:31.665Z,5.32
2022-09-28T01:35:05.412Z,4.43
2022-09-28T01:37:45.470Z,3.15
2022-09-28T01:40:15.774Z,3.88
2022-09-28T01:42:47.162Z,3.25
2022-09-28T01:45:20.882Z,4.47
2022-09-28T01:47:50.861Z,4.13
2022-09-28T01:50:22.913Z,4.43
2022-09-28T01:52:57.278Z,3.83
2022-09-28T01:55:38.878Z,3.38
2022-09-28T01:58:22.466Z,3.63
2022-09-28T02:00:57.704Z,3.38
2022-09-28T02:03:33.174Z,3.25
2022-09-28T02:06:11.729Z,4.90
2022-09-28T02:08:59.751Z,7.18
2022-09-28T02:11:41.611Z,2.92
2022-09-28T02:14:12.529Z,3.95
2022-09-28T02:17:20.154Z,3.70
2022-09-28T02:19:48.414Z,2.63
2022-09-28T02:22:34.223Z,4.00
2022-09-28T02:25:18.120Z,3.47
2022-09-28T02:28:00.543Z,2.92
2022-09-28T02:30:35.754Z,3.35
2022-09-28T02:33:20.075Z,2.95
2022-09-28T02:35:48.114Z,3.40
2022-09-28T02:38:16.890Z,3.60
2022-09-28T02:40:53.397Z,3.45
2022-09-28T02:43:33.366Z,3.33
2022-09-28T02:46:10.213Z,3.13
2022-09-28T02:48:52.219Z,4.75
2022-09-28T02:51:45.369Z,2.72
2022-09-28T02:54:26.319Z,3.30
2022-09-28T02:57:32.872Z,3.55
2022-09-28T03:00:14.454Z,3.22
2022-09-28T03:03:25.803Z,4.43
2022-09-28T03:06:02.622Z,3.10
2022-09-28T03:09:23.037Z,1.95
2022-09-28T03:12:05.221Z,3.08
2022-09-28T03:14:32.918Z,5.50
2022-09-28T03:17:00.899Z,6.25
2022-09-28T03:19:32.419Z,4.05
2022-09-28T03:22:01.978Z,4.35
2022-09-28T03:24:29.713Z,4.60
2022-09-28T03:26:57.362Z,3.25
2022-09-28T03:29:24.994Z,3.85
2022-09-28T03:31:58.846Z,2.05
2022-09-28T03:34:26.642Z,1.55
2022-09-28T03:36:54.507Z,4.18
2022-09-28T03:39:22.282Z,2.80
2022-09-28T03:41:49.885Z,5.05
2022-09-28T03:44:19.316Z,3.15
2022-09-28T03:46:49.132Z,2.38
2022-09-28T03:49:16.930Z,2.80
2022-09-28T03:51:44.682Z,2.45
2022-09-28T03:54:13.082Z,2.15
2022-09-28T03:56:41.381Z,4.10
2022-09-28T03:59:08.987Z,3.70
2022-09-28T04:01:37.525Z,2.63
2022-09-28T04:04:05.740Z,2.67
2022-09-28T04:06:33.468Z,3.33
2022-09-28T04:09:01.196Z,4.28
2022-09-28T04:11:38.515Z,4.78
2022-09-28T04:14:17.780Z,5.88
2022-09-28T04:16:45.718Z,3.33
2022-09-28T04:19:15.973Z,6.75
2022-09-28T04:22:06.615Z,4.07
2022-09-28T04:24:34.394Z,6.30
2022-09-28T04:27:20.857Z,5.47
2022-09-28T04:32:18.697Z,4.78
2022-09-28T04:34:46.254Z,4.57
2022-09-28T04:37:15.136Z,4.65
2022-09-28T04:39:46.287Z,6.15
2022-09-28T04:42:18.530Z,6.82
2022-09-28T04:44:46.636Z,5.15
2022-09-28T04:47:14.765Z,5.35
2022-09-28T04:49:57.599Z,6.03
2022-09-28T04:52:37.128Z,6.50
2022-09-28T04:55:06.346Z,3.90
2022-09-28T04:57:35.820Z,4.68
2022-09-28T05:00:04.807Z,6.65
2022-09-28T05:02:35.341Z,5.80
2022-09-28T05:05:22.069Z,6.35
2022-09-28T05:08:09.735Z,5.93
2022-09-28T05:10:40.753Z,6.88
2022-09-28T05:13:09.693Z,5.57
2022-09-28T05:15:38.762Z,5.28
2022-09-28T05:18:07.210Z,6.07
2022-09-28T05:20:46.433Z,7.20
2022-09-28T05:23:15.717Z,5.50
2022-09-28T05:25:46.001Z,6.45
2022-09-28T05:28:28.955Z,5.72
2022-09-28T05:31:15.163Z,7.30
2022-09-28T05:34:18.158Z,7.95
2022-09-28T05:36:46.831Z,24.08
2022-09-28T05:39:14.735Z,32.00
2022-09-28T05:41:42.553Z,27.15
2022-09-28T05:44:12.267Z,19.80
2022-09-28T05:46:40.211Z,14.98
2022-09-28T05:49:10.080Z,14.77
2022-09-28T05:51:39.546Z,13.68
2022-09-28T05:54:09.025Z,8.52
2022-09-28T05:56:40.896Z,5.88
2022-09-28T05:59:09.514Z,6.97
2022-09-28T06:01:37.919Z,6.15
2022-09-28T06:04:09.407Z,4.25
2022-09-28T06:06:43.608Z,6.18
2022-09-28T06:09:11.360Z,3.30
2022-09-28T06:11:48.486Z,7.70
2022-09-28T06:16:52.321Z,3.05
2022-09-28T06:19:20.119Z,8.60
2022-09-28T06:22:09.119Z,5.95
2022-09-28T06:24:47.585Z,6.75
2022-09-28T06:27:15.358Z,4.40
2022-09-28T06:29:43.313Z,4.88
2022-09-28T06:32:12.590Z,7.93
2022-09-28T06:34:42.153Z,5.68
2022-09-28T06:37:10.051Z,9.55
2022-09-28T06:39:38.219Z,6.07
2022-09-28T06:42:06.549Z,8.23
2022-09-28T06:44:52.731Z,6.32
2022-09-28T06:47:39.288Z,7.28
2022-09-28T06:50:17.704Z,6.35
2022-09-28T06:53:13.789Z,3.38
2022-09-28T06:55:54.989Z,5.25
2022-09-28T06:58:23.826Z,4.22
2022-09-28T07:00:52.503Z,4.95
2022-09-28T07:03:22.544Z,3.13
2022-09-28T07:06:12.093Z,2.42
2022-09-28T07:09:02.942Z,9.07
2022-09-28T07:12:16.171Z,4.03
2022-09-28T07:14:57.840Z,5.82
2022-09-28T07:17:28.511Z,3.72
2022-09-28T07:20:05.459Z,3.55
2022-09-28T07:22:43.510Z,9.77
2022-09-28T07:25:17.150Z,7.45
2022-09-28T07:28:09.559Z,8.18
2022-09-28T07:31:03.756Z,4.75
2022-09-28T07:34:06.910Z,5.03
2022-09-28T07:36:58.960Z,6.30
2022-09-28T07:39:27.028Z,7.65
2022-09-28T07:41:59.643Z,6.20
2022-09-28T07:44:30.196Z,5.28
2022-09-28T07:47:02.278Z,5.60
2022-09-28T07:49:57.213Z,7.57
2022-09-28T07:52:47.465Z,9.63
2022-09-28T07:55:23.901Z,14.35
2022-09-28T07:58:14.769Z,7.03
2022-09-28T08:00:54.821Z,6.25
2022-09-28T08:03:22.662Z,5.72
2022-09-28T08:05:50.375Z,5.63
2022-09-28T08:08:20.306Z,10.18
2022-09-28T08:10:48.735Z,5.00
2022-09-28T08:13:44.171Z,5.35
2022-09-28T08:16:35.164Z,4.25
2022-09-28T08:19:13.497Z,4.60
2022-09-28T08:21:47.323Z,7.20
2022-09-28T08:24:17.778Z,8.95
2022-09-28T08:26:46.987Z,4.60
2022-09-28T08:29:17.288Z,6.60
2022-09-28T08:32:02.012Z,7.45
2022-09-28T08:34:29.726Z,5.32
2022-09-28T08:37:16.223Z,5.38
2022-09-28T08:40:04.459Z,6.00
2022-09-28T08:42:54.966Z,5.93
2022-09-28T08:45:41.137Z,7.75
2022-09-28T08:48:56.284Z,6.75
2022-09-28T08:51:55.029Z,8.00
2022-09-28T08:54:56.348Z,9.23
2022-09-28T09:00:48.878Z,6.18
2022-09-28T09:03:41.866Z,8.13
2022-09-28T09:06:54.075Z,7.43
2022-09-28T09:09:40.136Z,5.22
2022-09-28T09:12:38.846Z,8.53
2022-09-28T09:15:38.867Z,6.18
2022-09-28T09:18:33.453Z,9.50
2022-09-28T09:21:49.067Z,6.50
2022-09-28T09:24:25.125Z,9.93
2022-09-28T09:27:16.053Z,6.40
2022-09-28T09:30:06.471Z,6.95
2022-09-28T09:33:05.325Z,6.32
2022-09-28T09:36:32.828Z,4.43
2022-09-28T09:39:44.024Z,6.13
2022-09-28T09:42:44.748Z,7.73
2022-09-28T09:45:53.318Z,6.10
2022-09-28T09:48:59.396Z,5.38
2022-09-28T09:51:27.132Z,4.38
2022-09-28T09:54:03.664Z,6.10
2022-09-28T09:56:40.568Z,6.15
2022-09-28T09:59:20.378Z,5.43
2022-09-28T10:02:26.284Z,4.85
2022-09-28T10:05:12.356Z,5.90
2022-09-28T10:08:06.324Z,5.43
2022-09-28T10:10:42.863Z,4.82
2022-09-28T10:13:14.906Z,3.58
2022-09-28T10:15:47.718Z,6.78
2022-09-28T10:18:21.680Z,4.05
2022-09-28T10:21:13.317Z,4.23
2022-09-28T10:24:22.913Z,5.43
2022-09-28T10:26:55.153Z,5.07
2022-09-28T10:29:27.197Z,7.10
2022-09-28T10:31:55.730Z,8.25
2022-09-28T10:34:31.141Z,7.57
2022-09-28T10:37:11.168Z,7.50
2022-09-28T10:39:57.607Z,7.57
2022-09-28T10:42:34.120Z,7.70
2022-09-28T10:45:24.058Z,6.22
2022-09-28T10:47:52.032Z,10.77
2022-09-28T10:50:23.772Z,8.85
2022-09-28T10:53:17.946Z,8.40
2022-09-28T10:56:19.248Z,7.28
2022-09-28T10:58:48.780Z,11.65
2022-09-28T11:01:38.115Z,9.95
2022-09-28T11:04:10.604Z,6.97
2022-09-28T11:06:40.499Z,7.57
2022-09-28T11:09:43.035Z,6.35
2022-09-28T11:12:17.472Z,7.40
2022-09-28T11:14:46.803Z,7.32
2022-09-28T11:17:32.706Z,6.30
2022-09-28T11:20:26.104Z,5.43
2022-09-28T11:22:57.622Z,5.50
2022-09-28T11:25:31.414Z,8.65
2022-09-28T11:28:04.521Z,7.57
2022-09-28T11:30:33.861Z,38.40
2022-09-28T11:33:35.214Z,30.80
2022-09-28T11:37:01.563Z,28.90
2022-09-28T11:40:03.637Z,20.67
2022-09-28T11:42:49.867Z,17.52
2022-09-28T11:45:32.623Z,14.35
2022-09-28T11:48:07.714Z,13.13
2022-09-28T11:51:00.215Z,11.70
2022-09-28T11:53:35.016Z,15.60
2022-09-28T11:56:17.313Z,13.52
2022-09-28T11:58:49.350Z,18.25
2022-09-28T12:01:37.019Z,16.77
2022-09-28T12:04:21.968Z,19.30
2022-09-28T12:07:06.979Z,16.85
2022-09-28T12:10:00.599Z,18.33
2022-09-28T12:12:36.274Z,17.88
2022-09-28T12:17:19.864Z,17.05
2022-09-28T12:20:04.507Z,14.07
2022-09-28T12:22:41.224Z,11.75
2022-09-28T12:25:16.260Z,9.80
2022-09-28T12:27:51.138Z,9.93
2022-09-28T12:30:21.042Z,8.40
2022-09-28T12:32:57.375Z,9.95
2022-09-28T12:35:52.672Z,9.68
2022-09-28T12:38:33.868Z,11.63
2022-09-28T12:41:05.599Z,12.40
2022-09-28T12:43:33.635Z,11.30
2022-09-28T12:46:17.673Z,6.63
2022-09-28T12:50:01.915Z,9.00
2022-09-28T12:52:33.621Z,8.38
2022-09-28T12:55:32.413Z,6.38
2022-09-28T12:58:31.114Z,6.18
2022-09-28T13:01:01.735Z,7.55
2022-09-28T13:03:59.938Z,9.68
2022-09-28T13:06:42.314Z,9.70
2022-09-28T13:09:16.136Z,8.05
2022-09-28T13:12:14.098Z,10.45
2022-09-28T13:17:38.881Z,7.13
2022-09-28T13:20:31.327Z,7.68
2022-09-28T13:23:15.809Z,6.35
2022-09-28T13:25:52.875Z,4.43
2022-09-28T13:28:27.045Z,4.55
2022-09-28T13:30:59.924Z,13.43
2022-09-28T13:33:37.712Z,5.38
2022-09-28T13:36:26.201Z,5.47
2022-09-28T13:38:56.289Z,5.32
2022-09-28T13:41:40.576Z,7.07
2022-09-28T13:44:11.511Z,5.93
2022-09-28T13:46:55.176Z,5.65
2022-09-28T13:49:56.889Z,2.67
2022-09-28T13:52:40.680Z,3.20
2022-09-28T13:55:14.308Z,4.70
2022-09-28T13:57:49.935Z,5.32
2022-09-28T14:00:29.329Z,5.03
2022-09-28T14:03:06.338Z,6.20
2022-09-28T14:05:45.960Z,3.42
2022-09-28T14:08:28.546Z,3.47
2022-09-28T14:10:57.927Z,4.00
2022-09-28T14:13:40.753Z,2.78
2022-09-28T14:16:23.083Z,4.97
2022-09-28T14:19:02.359Z,2.65
2022-09-28T14:21:54.691Z,5.50
2022-09-28T14:24:50.179Z,6.30
2022-09-28T14:27:36.113Z,2.40
2022-09-28T14:30:18.901Z,4.75
2022-09-28T14:32:58.555Z,3.20
2022-09-28T14:35:31.988Z,4.47
2022-09-28T14:38:30.460Z,3.05
2022-09-28T14:41:15.498Z,1.67
2022-09-28T14:43:46.367Z,5.55
2022-09-28T14:46:20.346Z,2.75
2022-09-28T14:48:56.121Z,2.55
2022-09-28T14:51:27.076Z,4.05
2022-09-28T14:54:05.889Z,5.00
2022-09-28T14:56:59.053Z,2.15
2022-09-28T14:59:36.106Z,2.80
2022-09-28T15:02:22.329Z,12.48
2022-09-28T15:05:01.914Z,9.30
2022-09-28T15:07:43.513Z,1.92
2022-09-28T15:10:31.599Z,4.50
2022-09-28T15:13:05.707Z,2.22
2022-09-28T15:15:37.316Z,3.80
2022-09-28T15:18:27.698Z,7.43
2022-09-28T15:20:56.416Z,2.83
2022-09-28T15:23:35.980Z,3.22
2022-09-28T15:26:08.612Z,6.88
2022-09-28T15:28:39.520Z,4.57
2022-09-28T15:31:07.269Z,4.50
2022-09-28T15:33:54.086Z,5.60
2022-09-28T15:36:27.963Z,3.00
2022-09-28T15:39:00.150Z,5.53
2022-09-28T15:41:29.001Z,2.30
2022-09-28T15:44:33.183Z,1.80
2022-09-28T15:47:25.347Z,4.25
2022-09-28T15:50:02.722Z,7.75
2022-09-28T15:52:38.906Z,8.00
2022-09-28T15:55:20.694Z,5.65
2022-09-28T15:57:49.121Z,3.47
2022-09-28T16:00:27.173Z,1.33
2022-09-28T16:03:19.303Z,3.38
2022-09-28T16:05:59.102Z,4.38
2022-09-28T16:08:36.303Z,4.53
2022-09-28T16:11:17.132Z,4.55
2022-09-28T16:14:17.679Z,3.55
2022-09-28T16:16:49.808Z,2.60
2022-09-28T16:19:30.253Z,5.75
2022-09-28T16:22:00.254Z,4.15
2022-09-28T16:24:38.898Z,3.65
2022-09-28T16:27:08.670Z,2.85
2022-09-28T16:29:42.328Z,4.35
2022-09-28T16:32:25.490Z,3.55
2022-09-28T16:35:11.473Z,2.83
2022-09-28T16:37:44.108Z,5.53
2022-09-28T16:40:12.863Z,1.48
2022-09-28T16:42:48.701Z,1.75
2022-09-28T16:45:22.536Z,1.05
2022-09-28T16:47:53.709Z,2.78
2022-09-28T16:50:22.337Z,5.00
2022-09-28T16:53:15.086Z,2.10
2022-09-28T16:55:43.155Z,2.20
2022-09-28T16:58:10.830Z,2.38
2022-09-28T17:00:38.851Z,1.48
2022-09-28T17:03:18.412Z,2.58
2022-09-28T17:05:48.092Z,5.15
2022-09-28T17:08:18.576Z,1.67
2022-09-28T17:13:42.323Z,3.63
2022-09-28T17:16:14.863Z,2.53
2022-09-28T17:18:42.691Z,4.05
2022-09-28T17:21:15.984Z,3.25
2022-09-28T17:23:44.715Z,3.92
2022-09-28T17:26:34.612Z,4.10
2022-09-28T17:29:02.397Z,4.43
2022-09-28T17:31:30.539Z,6.30
2022-09-28T17:33:58.480Z,8.32
2022-09-28T17:36:27.170Z,7.28
2022-09-28T17:38:54.933Z,7.47
2022-09-28T17:41:22.723Z,6.63
2022-09-28T17:43:50.333Z,4.10
2022-09-28T17:46:31.269Z,7.55
2022-09-28T17:49:00.786Z,6.00
2022-09-28T17:51:31.303Z,9.27
2022-09-28T17:54:01.179Z,5.85
2022-09-28T17:56:32.093Z,7.65
2022-09-28T17:59:10.211Z,6.18
2022-09-28T18:01:40.211Z,6.03
2022-09-28T18:04:13.138Z,6.95
2022-09-28T18:06:43.875Z,9.25
2022-09-28T18:09:14.928Z,3.80
2022-09-28T18:11:44.561Z,5.45
2022-09-28T18:14:13.876Z,4.25
2022-09-28T18:16:41.572Z,5.20
2022-09-28T18:19:09.252Z,4.38
2022-09-28T18:21:36.842Z,2.22
2022-09-28T18:24:04.619Z,4.93
2022-09-28T18:26:32.306Z,2.08
2022-09-28T18:29:00.080Z,4.70
2022-09-28T18:31:28.715Z,4.22
2022-09-28T18:34:02.977Z,7.28
2022-09-28T18:36:32.525Z,3.60
2022-09-28T18:39:01.548Z,6.72
2022-09-28T18:41:29.413Z,7.70
2022-09-28T18:44:00.929Z,6.57
2022-09-28T18:46:34.921Z,7.90
2022-09-28T18:49:04.319Z,12.63
2022-09-28T18:51:32.366Z,10.77
2022-09-28T18:54:02.204Z,8.93
2022-09-28T18:56:30.384Z,9.63
2022-09-28T18:59:00.197Z,6.90
2022-09-28T19:01:30.477Z,4.85
2022-09-28T19:04:00.759Z,4.28
2022-09-28T19:06:29.292Z,4.88
2022-09-28T19:08:57.651Z,7.45
2022-09-28T19:11:27.240Z,8.85
2022-09-28T19:13:55.775Z,7.10
2022-09-28T19:16:25.960Z,9.57
2022-09-28T19:18:53.823Z,7.90
2022-09-28T19:21:21.792Z,7.30
2022-09-28T19:23:50.159Z,6.43
2022-09-28T19:26:21.003Z,5.60
2022-09-28T19:28:49.526Z,5.72
2022-09-28T19:31:17.489Z,4.18
2022-09-28T19:33:46.634Z,3.53
2022-09-28T19:36:18.540Z,4.28
2022-09-28T19:38:46.441Z,4.47
2022-09-28T19:41:39.487Z,5.25
2022-09-28T19:44:26.306Z,5.47
2022-09-28T19:47:00.803Z,4.05
2022-09-28T19:49:30.001Z,7.20
2022-09-28T19:52:14.781Z,4.88
2022-09-28T19:54:58.338Z,6.53
2022-09-28T19:57:30.664Z,12.88
2022-09-28T20:00:02.431Z,66.40
2022-09-28T20:02:35.011Z,76.63
2022-09-28T20:05:03.546Z,46.33
2022-09-28T20:07:33.418Z,35.75
2022-09-28T20:10:00.988Z,22.52
2022-09-28T20:12:28.790Z,19.92
2022-09-28T20:14:56.515Z,14.07
2022-09-28T20:17:24.364Z,13.77
2022-09-28T20:19:52.432Z,12.60
2022-09-28T20:22:20.426Z,10.70
2022-09-28T20:24:48.171Z,9.38
2022-09-28T20:27:15.906Z,6.75
2022-09-28T20:29:43.901Z,7.75
2022-09-28T20:32:11.845Z,6.68
2022-09-28T20:34:39.643Z,5.05
2022-09-28T20:37:07.481Z,5.95
2022-09-28T20:39:35.068Z,3.75
2022-09-28T20:42:05.640Z,4.10
2022-09-28T20:44:33.390Z,4.07
2022-09-28T20:47:01.437Z,4.07
2022-09-28T20:49:29.175Z,7.80
2022-09-28T20:51:56.751Z,19.45
2022-09-28T20:54:24.729Z,21.38
2022-09-28T20:56:52.425Z,14.52
2022-09-28T20:59:22.914Z,10.93
2022-09-28T21:01:51.272Z,10.15
2022-09-28T21:04:19.740Z,7.82
2022-09-28T21:06:47.506Z,6.88
2022-09-28T21:09:15.143Z,9.80
2022-09-28T21:11:43.215Z,7.10
2022-09-28T21:14:10.927Z,8.57
2022-09-28T21:16:39.007Z,6.68
2022-09-28T21:19:06.793Z,7.88
2022-09-28T21:21:34.499Z,5.15
2022-09-28T21:24:02.468Z,4.97
2022-09-28T21:26:31.700Z,6.55
2022-09-28T21:29:12.989Z,9.55
2022-09-28T21:31:46.187Z,10.35
2022-09-28T21:34:19.468Z,10.75
2022-09-28T21:36:51.175Z,12.25
2022-09-28T21:39:20.312Z,15.70
2022-09-28T21:41:48.248Z,14.48
2022-09-28T21:44:15.962Z,12.95
2022-09-28T21:46:43.680Z,10.43
2022-09-28T21:49:12.743Z,9.10
2022-09-28T21:51:40.708Z,8.35
2022-09-28T21:54:08.788Z,10.02
2022-09-28T21:56:36.393Z,8.45
2022-09-28T21:59:04.226Z,6.13
2022-09-28T22:01:32.256Z,7.82
2022-09-28T22:04:00.073Z,7.72
2022-09-28T22:06:28.318Z,8.88
2022-09-28T22:08:57.008Z,10.02
2022-09-28T22:11:27.352Z,9.02
2022-09-28T22:13:59.430Z,10.05
2022-09-28T22:16:29.714Z,6.13
2022-09-28T22:18:58.112Z,6.25
2022-09-28T22:21:32.140Z,4.40
2022-09-28T22:24:04.512Z,5.75
2022-09-28T22:26:34.361Z,5.55
2022-09-28T22:29:05.910Z,3.33
2022-09-28T22:31:36.089Z,8.07
2022-09-28T22:34:04.743Z,5.32
2022-09-28T22:36:32.939Z,3.95
2022-09-28T22:39:00.662Z,5.03
2022-09-28T22:41:28.519Z,3.47
2022-09-28T22:43:56.339Z,3.45
2022-09-28T22:46:27.198Z,4.78
2022-09-28T22:48:56.935Z,3.60
2022-09-28T22:51:26.364Z,3.15
2022-09-28T22:53:54.444Z,2.50
2022-09-28T22:56:22.553Z,3.05
2022-09-28T22:58:50.192Z,3.42
2022-09-28T23:01:24.056Z,3.22
2022-09-28T23:03:52.889Z,3.47
2022-09-28T23:06:23.354Z,3.28
2022-09-28T23:08:51.882Z,3.33
2022-09-28T23:11:20.870Z,2.90
2022-09-28T23:13:52.900Z,2.22
2022-09-28T23:16:23.601Z,3.13
2022-09-28T23:18:52.433Z,2.65
2022-09-28T23:21:22.868Z,3.90
2022-09-28T23:23:59.018Z,2.72
2022-09-28T23:26:28.959Z,2.95
2022-09-28T23:28:57.648Z,3.28
2022-09-28T23:31:28.759Z,3.40
2022-09-28T23:34:04.309Z,5.38
2022-09-28T23:36:32.370Z,3.92
2022-09-28T23:39:00.416Z,2.50
2022-09-28T23:41:28.687Z,5.15
2022-09-28T23:43:56.427Z,2.53
2022-09-28T23:46:24.597Z,4.63
2022-09-28T23:48:52.675Z,3.50
2022-09-28T23:51:20.551Z,3.45
2022-09-28T23:53:48.318Z,2.90
2022-09-28T23:56:15.997Z,3.40
2022-09-28T23:58:43.718Z,3.22
